Portada
METAR-TAF:

METAR-TAF

Aeroports :

Pattaya-Rayong, Tailàndia

latitud: 12-38N, longitud: 101-21E, altitud: 3 m

Observació

L'informe es va fer fa 15 minuts, a les 15:00 UTC
Vent 3 kt del Nord/Nord-Oest
Temperatura 27°C
Humitat 66%
Pressió 1016 hPa
Visibilitat: 6000 m
Escasses núvols a una alçada de 2000 ft

METAR: VTBU 181500Z 33003KT 6000 FEW020 27/20 Q1016 NOSIG

Hora: 22:15 (15:15 UTC)

Pronòstic

L'informe es va fer fa 4 hores i 15 minuts, a les 11:00 UTC
Pronòstic vàlid del 18 a les 12 UTC al 19 a les 12 UTC
Vent 8 kt del Nord-Est
Visibilitat: 6000 m
Escasses núvols a una alçada de 2000 ft
Núvols disperses a una alçada de 10000 ft
Evolucionant progressivament
l' 19 a les 06 UTC al 19 a les 08 UTC
Vent 10 kt del Sud

TAF: VTBU 181100Z 1812/1912 04008KT 6000 FEW020 SCT100 BECMG 1906/1908 18010KT

Observacions i pronòstics meteorològics de més de 4000 aeroports (METAR i TAF).

Les estacions disponibles són els punts grocs i vermells al mapa.

Posi el ratolí al punt desitjat per veure el nom de l'estació.

Feu clic per veure les observacions i els pronòstics meteorològics.

Per canviar el mapa: feu clic els botons verds amb una creu de color negre per apropar; al botó verd amb un guió per allunyar la imatge; o en les fletxes verdes per a mapes adjacents.


METAR-TAF: